Terminal Aerodrome Forecast
Issued by NWS Topeka, KS

Home | Current Version | Previous Version | Text Only | Print | Product List | Glossary Off
Versions: 1 2 3 4 5 6 7 8 9 10 11 12 13 14 15 16 17 18 19 20

000
FTUS43 KTOP 200520
TAFTOP
TAF
KTOP 200520Z 2006/2106 17013G22KT P6SM SKC WS017/19055KT
     FM201300 21011KT P6SM FEW200
     FM201800 33007KT P6SM SCT110
     FM202000 05007KT P6SM SCT090=

USA.gov is the U.S. government's official web portal to all federal, state and local government web resources and services.